sensor_id;sensor_type;location;lat;lon;timestamp;P1;durP1;ratioP1;P2;durP2;ratioP2
1987;SDS011;12775;46.994;15.498;2023-02-15T00:00:41;26.34;;;15.74;;
1987;SDS011;12775;46.994;15.498;2023-02-15T00:03:08;25.66;;;15.38;;
1987;SDS011;12775;46.994;15.498;2023-02-15T00:05:36;23.94;;;15.30;;
1987;SDS011;12775;46.994;15.498;2023-02-15T00:08:03;22.96;;;14.98;;
1987;SDS011;12775;46.994;15.498;2023-02-15T00:10:31;20.24;;;15.04;;
1987;SDS011;12775;46.994;15.498;2023-02-15T00:12:59;22.00;;;15.16;;
1987;SDS011;12775;46.994;15.498;2023-02-15T00:15:25;20.80;;;13.62;;
1987;SDS011;12775;46.994;15.498;2023-02-15T00:17:53;24.94;;;14.02;;
1987;SDS011;12775;46.994;15.498;2023-02-15T00:20:21;28.50;;;15.70;;
1987;SDS011;12775;46.994;15.498;2023-02-15T00:22:48;18.72;;;13.46;;
1987;SDS011;12775;46.994;15.498;2023-02-15T00:25:16;18.90;;;12.62;;
1987;SDS011;12775;46.994;15.498;2023-02-15T00:27:43;20.80;;;16.46;;
1987;SDS011;12775;46.994;15.498;2023-02-15T00:30:11;22.34;;;15.50;;
1987;SDS011;12775;46.994;15.498;2023-02-15T00:32:39;24.20;;;16.12;;
1987;SDS011;12775;46.994;15.498;2023-02-15T00:35:06;24.24;;;15.90;;
1987;SDS011;12775;46.994;15.498;2023-02-15T00:37:33;23.00;;;14.32;;
1987;SDS011;12775;46.994;15.498;2023-02-15T00:40:01;20.50;;;15.60;;
1987;SDS011;12775;46.994;15.498;2023-02-15T00:42:28;24.42;;;16.78;;
1987;SDS011;12775;46.994;15.498;2023-02-15T00:44:56;23.06;;;16.30;;
1987;SDS011;12775;46.994;15.498;2023-02-15T00:47:23;24.04;;;16.60;;
1987;SDS011;12775;46.994;15.498;2023-02-15T00:49:50;24.66;;;16.38;;
1987;SDS011;12775;46.994;15.498;2023-02-15T00:52:18;23.44;;;15.30;;
1987;SDS011;12775;46.994;15.498;2023-02-15T00:54:45;20.72;;;15.10;;
1987;SDS011;12775;46.994;15.498;2023-02-15T00:57:12;23.66;;;17.06;;
1987;SDS011;12775;46.994;15.498;2023-02-15T00:59:39;21.80;;;16.44;;
1987;SDS011;12775;46.994;15.498;2023-02-15T01:02:06;24.28;;;16.60;;
1987;SDS011;12775;46.994;15.498;2023-02-15T01:04:32;28.36;;;17.44;;
1987;SDS011;12775;46.994;15.498;2023-02-15T01:06:59;21.88;;;15.48;;
1987;SDS011;12775;46.994;15.498;2023-02-15T01:09:25;31.46;;;17.70;;
1987;SDS011;12775;46.994;15.498;2023-02-15T01:11:53;22.76;;;18.56;;
1987;SDS011;12775;46.994;15.498;2023-02-15T01:14:20;25.62;;;16.24;;
1987;SDS011;12775;46.994;15.498;2023-02-15T01:16:47;23.00;;;16.62;;
1987;SDS011;12775;46.994;15.498;2023-02-15T01:19:15;24.52;;;17.16;;
1987;SDS011;12775;46.994;15.498;2023-02-15T01:21:42;24.76;;;16.40;;
1987;SDS011;12775;46.994;15.498;2023-02-15T01:24:12;23.72;;;16.76;;
1987;SDS011;12775;46.994;15.498;2023-02-15T01:26:38;22.38;;;16.84;;
1987;SDS011;12775;46.994;15.498;2023-02-15T01:29:05;35.14;;;20.74;;
1987;SDS011;12775;46.994;15.498;2023-02-15T01:31:31;27.60;;;18.88;;
1987;SDS011;12775;46.994;15.498;2023-02-15T01:33:58;26.34;;;17.94;;
1987;SDS011;12775;46.994;15.498;2023-02-15T01:36:24;22.96;;;16.00;;
1987;SDS011;12775;46.994;15.498;2023-02-15T01:38:51;25.06;;;16.38;;
1987;SDS011;12775;46.994;15.498;2023-02-15T01:41:18;25.88;;;16.50;;
1987;SDS011;12775;46.994;15.498;2023-02-15T01:43:48;29.14;;;20.16;;
1987;SDS011;12775;46.994;15.498;2023-02-15T01:46:15;33.74;;;18.16;;
1987;SDS011;12775;46.994;15.498;2023-02-15T01:48:43;27.48;;;18.56;;
1987;SDS011;12775;46.994;15.498;2023-02-15T01:51:14;26.90;;;18.96;;
1987;SDS011;12775;46.994;15.498;2023-02-15T01:53:43;22.78;;;18.00;;
1987;SDS011;12775;46.994;15.498;2023-02-15T01:56:11;28.32;;;20.84;;
1987;SDS011;12775;46.994;15.498;2023-02-15T01:58:37;29.88;;;20.26;;
1987;SDS011;12775;46.994;15.498;2023-02-15T02:01:05;29.80;;;21.06;;
1987;SDS011;12775;46.994;15.498;2023-02-15T02:03:40;25.28;;;18.96;;
1987;SDS011;12775;46.994;15.498;2023-02-15T02:06:05;34.90;;;20.70;;
1987;SDS011;12775;46.994;15.498;2023-02-15T02:08:33;27.98;;;19.30;;
1987;SDS011;12775;46.994;15.498;2023-02-15T02:10:59;33.46;;;20.80;;
1987;SDS011;12775;46.994;15.498;2023-02-15T02:13:26;29.76;;;20.92;;
1987;SDS011;12775;46.994;15.498;2023-02-15T02:16:09;31.34;;;20.96;;
1987;SDS011;12775;46.994;15.498;2023-02-15T02:18:43;28.00;;;20.06;;
1987;SDS011;12775;46.994;15.498;2023-02-15T02:24:59;30.04;;;20.26;;
1987;SDS011;12775;46.994;15.498;2023-02-15T02:26:58;27.02;;;19.72;;
1987;SDS011;12775;46.994;15.498;2023-02-15T02:29:30;22.24;;;17.28;;
1987;SDS011;12775;46.994;15.498;2023-02-15T02:34:37;28.88;;;19.26;;
1987;SDS011;12775;46.994;15.498;2023-02-15T02:38:15;33.02;;;22.18;;
1987;SDS011;12775;46.994;15.498;2023-02-15T02:39:55;23.62;;;17.44;;
1987;SDS011;12775;46.994;15.498;2023-02-15T02:42:29;23.34;;;18.06;;
1987;SDS011;12775;46.994;15.498;2023-02-15T02:45:03;30.90;;;20.38;;
1987;SDS011;12775;46.994;15.498;2023-02-15T02:47:43;28.46;;;20.74;;
1987;SDS011;12775;46.994;15.498;2023-02-15T02:50:13;31.06;;;20.56;;
1987;SDS011;12775;46.994;15.498;2023-02-15T02:52:41;26.38;;;19.46;;
1987;SDS011;12775;46.994;15.498;2023-02-15T02:55:11;28.48;;;18.92;;
1987;SDS011;12775;46.994;15.498;2023-02-15T02:57:42;34.26;;;21.64;;
1987;SDS011;12775;46.994;15.498;2023-02-15T03:00:07;32.76;;;22.62;;
1987;SDS011;12775;46.994;15.498;2023-02-15T03:02:37;30.96;;;19.80;;
1987;SDS011;12775;46.994;15.498;2023-02-15T03:05:03;27.84;;;20.04;;
1987;SDS011;12775;46.994;15.498;2023-02-15T03:07:30;28.94;;;18.52;;
1987;SDS011;12775;46.994;15.498;2023-02-15T03:09:57;26.64;;;20.66;;
1987;SDS011;12775;46.994;15.498;2023-02-15T03:12:31;29.94;;;21.76;;
1987;SDS011;12775;46.994;15.498;2023-02-15T03:15:00;30.56;;;21.18;;
1987;SDS011;12775;46.994;15.498;2023-02-15T03:17:25;31.52;;;19.68;;
1987;SDS011;12775;46.994;15.498;2023-02-15T03:22:25;29.80;;;19.32;;
1987;SDS011;12775;46.994;15.498;2023-02-15T03:24:52;27.20;;;19.54;;
1987;SDS011;12775;46.994;15.498;2023-02-15T03:27:24;28.00;;;20.92;;
1987;SDS011;12775;46.994;15.498;2023-02-15T03:29:52;25.78;;;19.08;;
1987;SDS011;12775;46.994;15.498;2023-02-15T03:32:19;26.26;;;19.92;;
1987;SDS011;12775;46.994;15.498;2023-02-15T03:34:46;28.42;;;19.36;;
1987;SDS011;12775;46.994;15.498;2023-02-15T03:37:19;33.60;;;19.66;;
1987;SDS011;12775;46.994;15.498;2023-02-15T03:40:02;32.18;;;19.68;;
1987;SDS011;12775;46.994;15.498;2023-02-15T03:42:42;29.54;;;20.00;;
1987;SDS011;12775;46.994;15.498;2023-02-15T03:45:10;27.80;;;18.82;;
1987;SDS011;12775;46.994;15.498;2023-02-15T03:47:38;26.46;;;18.62;;
1987;SDS011;12775;46.994;15.498;2023-02-15T03:50:07;33.66;;;21.66;;
1987;SDS011;12775;46.994;15.498;2023-02-15T03:52:33;26.62;;;17.62;;
1987;SDS011;12775;46.994;15.498;2023-02-15T03:55:00;27.66;;;20.28;;
1987;SDS011;12775;46.994;15.498;2023-02-15T03:57:28;25.98;;;19.52;;
1987;SDS011;12775;46.994;15.498;2023-02-15T04:00:02;25.74;;;19.46;;
1987;SDS011;12775;46.994;15.498;2023-02-15T04:02:37;25.18;;;18.24;;
1987;SDS011;12775;46.994;15.498;2023-02-15T04:05:01;32.38;;;20.92;;
1987;SDS011;12775;46.994;15.498;2023-02-15T04:07:29;29.84;;;19.76;;
1987;SDS011;12775;46.994;15.498;2023-02-15T04:09:56;31.78;;;21.94;;
1987;SDS011;12775;46.994;15.498;2023-02-15T04:12:30;26.72;;;20.08;;
1987;SDS011;12775;46.994;15.498;2023-02-15T04:14:57;28.86;;;19.34;;
1987;SDS011;12775;46.994;15.498;2023-02-15T04:17:30;27.80;;;21.28;;
1987;SDS011;12775;46.994;15.498;2023-02-15T04:19:57;29.92;;;21.46;;
1987;SDS011;12775;46.994;15.498;2023-02-15T04:22:30;28.66;;;19.34;;
1987;SDS011;12775;46.994;15.498;2023-02-15T04:25:03;24.22;;;19.48;;
1987;SDS011;12775;46.994;15.498;2023-02-15T04:27:38;28.34;;;20.44;;
1987;SDS011;12775;46.994;15.498;2023-02-15T04:30:06;27.96;;;20.60;;
1987;SDS011;12775;46.994;15.498;2023-02-15T04:32:33;33.78;;;22.80;;
1987;SDS011;12775;46.994;15.498;2023-02-15T04:35:00;26.80;;;17.88;;
1987;SDS011;12775;46.994;15.498;2023-02-15T04:37:26;27.48;;;20.36;;
1987;SDS011;12775;46.994;15.498;2023-02-15T04:39:53;27.56;;;20.94;;
1987;SDS011;12775;46.994;15.498;2023-02-15T04:42:19;29.06;;;21.12;;
1987;SDS011;12775;46.994;15.498;2023-02-15T04:44:46;29.18;;;21.38;;
1987;SDS011;12775;46.994;15.498;2023-02-15T04:47:13;28.24;;;20.30;;
1987;SDS011;12775;46.994;15.498;2023-02-15T04:49:40;32.04;;;22.44;;
1987;SDS011;12775;46.994;15.498;2023-02-15T04:52:07;30.50;;;24.14;;
1987;SDS011;12775;46.994;15.498;2023-02-15T04:54:33;31.32;;;22.24;;
1987;SDS011;12775;46.994;15.498;2023-02-15T04:57:01;31.60;;;23.02;;
1987;SDS011;12775;46.994;15.498;2023-02-15T04:59:27;32.54;;;23.18;;
1987;SDS011;12775;46.994;15.498;2023-02-15T05:01:55;33.60;;;22.26;;
1987;SDS011;12775;46.994;15.498;2023-02-15T05:04:22;36.44;;;25.12;;
1987;SDS011;12775;46.994;15.498;2023-02-15T05:06:49;39.66;;;24.98;;
1987;SDS011;12775;46.994;15.498;2023-02-15T05:09:16;33.74;;;22.92;;
1987;SDS011;12775;46.994;15.498;2023-02-15T05:11:43;32.16;;;24.12;;
1987;SDS011;12775;46.994;15.498;2023-02-15T05:14:10;36.84;;;24.42;;
1987;SDS011;12775;46.994;15.498;2023-02-15T05:16:37;39.88;;;25.02;;
1987;SDS011;12775;46.994;15.498;2023-02-15T05:19:04;34.38;;;24.44;;
1987;SDS011;12775;46.994;15.498;2023-02-15T05:21:32;35.22;;;23.96;;
1987;SDS011;12775;46.994;15.498;2023-02-15T05:23:59;37.00;;;25.90;;
1987;SDS011;12775;46.994;15.498;2023-02-15T05:26:26;32.94;;;23.80;;
1987;SDS011;12775;46.994;15.498;2023-02-15T05:28:59;34.30;;;23.00;;
1987;SDS011;12775;46.994;15.498;2023-02-15T05:31:27;39.42;;;24.28;;
1987;SDS011;12775;46.994;15.498;2023-02-15T05:33:54;40.64;;;26.80;;
1987;SDS011;12775;46.994;15.498;2023-02-15T05:36:21;35.14;;;24.06;;
1987;SDS011;12775;46.994;15.498;2023-02-15T05:38:49;37.38;;;26.00;;
1987;SDS011;12775;46.994;15.498;2023-02-15T05:41:16;32.38;;;23.40;;
1987;SDS011;12775;46.994;15.498;2023-02-15T05:43:44;29.94;;;22.88;;
1987;SDS011;12775;46.994;15.498;2023-02-15T05:46:11;39.12;;;25.58;;
1987;SDS011;12775;46.994;15.498;2023-02-15T05:48:38;32.68;;;24.44;;
1987;SDS011;12775;46.994;15.498;2023-02-15T05:51:08;30.14;;;22.94;;
1987;SDS011;12775;46.994;15.498;2023-02-15T05:53:36;36.54;;;25.54;;
1987;SDS011;12775;46.994;15.498;2023-02-15T05:56:03;40.84;;;27.12;;
1987;SDS011;12775;46.994;15.498;2023-02-15T05:58:30;40.54;;;25.62;;
1987;SDS011;12775;46.994;15.498;2023-02-15T06:00:58;36.00;;;23.80;;
1987;SDS011;12775;46.994;15.498;2023-02-15T06:03:25;35.02;;;25.54;;
1987;SDS011;12775;46.994;15.498;2023-02-15T06:05:52;41.28;;;26.30;;
1987;SDS011;12775;46.994;15.498;2023-02-15T06:08:20;36.64;;;24.34;;
1987;SDS011;12775;46.994;15.498;2023-02-15T06:10:47;39.74;;;25.14;;
1987;SDS011;12775;46.994;15.498;2023-02-15T06:13:14;35.66;;;25.62;;
1987;SDS011;12775;46.994;15.498;2023-02-15T06:15:42;36.90;;;27.66;;
1987;SDS011;12775;46.994;15.498;2023-02-15T06:18:09;34.58;;;23.70;;
1987;SDS011;12775;46.994;15.498;2023-02-15T06:20:36;31.22;;;25.24;;
1987;SDS011;12775;46.994;15.498;2023-02-15T06:23:03;35.52;;;22.88;;
1987;SDS011;12775;46.994;15.498;2023-02-15T06:25:30;39.12;;;22.40;;
1987;SDS011;12775;46.994;15.498;2023-02-15T06:27:58;43.12;;;29.62;;
1987;SDS011;12775;46.994;15.498;2023-02-15T06:30:25;37.38;;;24.60;;
1987;SDS011;12775;46.994;15.498;2023-02-15T06:32:53;47.20;;;30.62;;
1987;SDS011;12775;46.994;15.498;2023-02-15T06:35:20;44.58;;;31.38;;
1987;SDS011;12775;46.994;15.498;2023-02-15T06:37:48;49.92;;;32.34;;
1987;SDS011;12775;46.994;15.498;2023-02-15T06:40:15;47.34;;;29.74;;
1987;SDS011;12775;46.994;15.498;2023-02-15T06:42:42;50.06;;;32.08;;
1987;SDS011;12775;46.994;15.498;2023-02-15T06:45:10;52.04;;;31.80;;
1987;SDS011;12775;46.994;15.498;2023-02-15T06:47:37;48.24;;;30.46;;
1987;SDS011;12775;46.994;15.498;2023-02-15T06:50:05;41.98;;;29.24;;
1987;SDS011;12775;46.994;15.498;2023-02-15T06:52:32;36.04;;;26.46;;
1987;SDS011;12775;46.994;15.498;2023-02-15T06:55:00;35.62;;;24.46;;
1987;SDS011;12775;46.994;15.498;2023-02-15T06:57:28;29.94;;;23.04;;
1987;SDS011;12775;46.994;15.498;2023-02-15T06:59:55;38.26;;;24.20;;
1987;SDS011;12775;46.994;15.498;2023-02-15T07:02:23;34.48;;;25.48;;
1987;SDS011;12775;46.994;15.498;2023-02-15T07:04:50;39.32;;;23.76;;
1987;SDS011;12775;46.994;15.498;2023-02-15T07:07:17;34.96;;;23.20;;
1987;SDS011;12775;46.994;15.498;2023-02-15T07:09:45;34.00;;;26.28;;
1987;SDS011;12775;46.994;15.498;2023-02-15T07:12:12;31.74;;;24.60;;
1987;SDS011;12775;46.994;15.498;2023-02-15T07:14:45;34.44;;;22.74;;
1987;SDS011;12775;46.994;15.498;2023-02-15T07:17:13;39.12;;;26.68;;
1987;SDS011;12775;46.994;15.498;2023-02-15T07:19:40;43.80;;;28.50;;
1987;SDS011;12775;46.994;15.498;2023-02-15T07:22:07;40.24;;;27.24;;
1987;SDS011;12775;46.994;15.498;2023-02-15T07:24:35;45.06;;;27.98;;
1987;SDS011;12775;46.994;15.498;2023-02-15T07:27:02;36.10;;;25.54;;
1987;SDS011;12775;46.994;15.498;2023-02-15T07:29:29;37.98;;;26.64;;
1987;SDS011;12775;46.994;15.498;2023-02-15T07:31:57;35.84;;;25.54;;
1987;SDS011;12775;46.994;15.498;2023-02-15T07:34:25;35.34;;;25.72;;
1987;SDS011;12775;46.994;15.498;2023-02-15T07:36:53;33.96;;;25.06;;
1987;SDS011;12775;46.994;15.498;2023-02-15T07:39:20;43.26;;;27.90;;
1987;SDS011;12775;46.994;15.498;2023-02-15T07:41:47;41.52;;;29.94;;
1987;SDS011;12775;46.994;15.498;2023-02-15T07:44:15;40.32;;;27.60;;
1987;SDS011;12775;46.994;15.498;2023-02-15T07:46:42;42.00;;;25.30;;
1987;SDS011;12775;46.994;15.498;2023-02-15T07:49:09;39.36;;;26.00;;
1987;SDS011;12775;46.994;15.498;2023-02-15T07:51:37;44.42;;;27.80;;
1987;SDS011;12775;46.994;15.498;2023-02-15T07:54:04;42.72;;;24.74;;
1987;SDS011;12775;46.994;15.498;2023-02-15T07:56:32;38.64;;;26.68;;
1987;SDS011;12775;46.994;15.498;2023-02-15T07:58:59;38.36;;;27.62;;
1987;SDS011;12775;46.994;15.498;2023-02-15T08:01:29;38.84;;;26.78;;
1987;SDS011;12775;46.994;15.498;2023-02-15T08:03:54;44.58;;;27.42;;
1987;SDS011;12775;46.994;15.498;2023-02-15T08:06:25;44.72;;;28.06;;
1987;SDS011;12775;46.994;15.498;2023-02-15T08:08:49;40.92;;;27.50;;
1987;SDS011;12775;46.994;15.498;2023-02-15T08:11:18;52.80;;;29.78;;
1987;SDS011;12775;46.994;15.498;2023-02-15T08:13:52;39.52;;;28.12;;
1987;SDS011;12775;46.994;15.498;2023-02-15T08:16:22;41.98;;;26.48;;
1987;SDS011;12775;46.994;15.498;2023-02-15T08:18:50;46.14;;;28.30;;
1987;SDS011;12775;46.994;15.498;2023-02-15T08:21:18;42.48;;;25.76;;
1987;SDS011;12775;46.994;15.498;2023-02-15T08:23:45;37.74;;;26.22;;
1987;SDS011;12775;46.994;15.498;2023-02-15T08:26:14;41.32;;;24.76;;
1987;SDS011;12775;46.994;15.498;2023-02-15T08:28:41;41.60;;;24.98;;
1987;SDS011;12775;46.994;15.498;2023-02-15T08:31:09;41.02;;;26.64;;
1987;SDS011;12775;46.994;15.498;2023-02-15T08:33:36;47.16;;;25.76;;
1987;SDS011;12775;46.994;15.498;2023-02-15T08:36:06;39.84;;;26.12;;
1987;SDS011;12775;46.994;15.498;2023-02-15T08:38:33;37.96;;;23.52;;
1987;SDS011;12775;46.994;15.498;2023-02-15T08:43:36;35.96;;;24.34;;
1987;SDS011;12775;46.994;15.498;2023-02-15T08:46:03;40.32;;;26.26;;
1987;SDS011;12775;46.994;15.498;2023-02-15T08:48:31;41.82;;;26.00;;
1987;SDS011;12775;46.994;15.498;2023-02-15T08:50:58;40.66;;;28.82;;
1987;SDS011;12775;46.994;15.498;2023-02-15T08:53:26;40.88;;;24.36;;
1987;SDS011;12775;46.994;15.498;2023-02-15T08:55:56;42.04;;;24.40;;
1987;SDS011;12775;46.994;15.498;2023-02-15T08:58:23;48.38;;;26.44;;
1987;SDS011;12775;46.994;15.498;2023-02-15T09:00:50;44.62;;;26.44;;
1987;SDS011;12775;46.994;15.498;2023-02-15T09:03:17;40.78;;;26.54;;
1987;SDS011;12775;46.994;15.498;2023-02-15T09:05:44;42.72;;;25.18;;
1987;SDS011;12775;46.994;15.498;2023-02-15T09:08:12;39.24;;;26.56;;
1987;SDS011;12775;46.994;15.498;2023-02-15T09:10:39;44.10;;;25.44;;
1987;SDS011;12775;46.994;15.498;2023-02-15T09:13:07;39.82;;;23.34;;
1987;SDS011;12775;46.994;15.498;2023-02-15T09:15:34;44.66;;;25.44;;
1987;SDS011;12775;46.994;15.498;2023-02-15T09:18:01;39.76;;;25.58;;
1987;SDS011;12775;46.994;15.498;2023-02-15T09:20:28;43.88;;;27.18;;
1987;SDS011;12775;46.994;15.498;2023-02-15T09:22:55;45.82;;;27.98;;
1987;SDS011;12775;46.994;15.498;2023-02-15T09:25:23;43.96;;;25.24;;
1987;SDS011;12775;46.994;15.498;2023-02-15T09:27:50;39.42;;;26.52;;
1987;SDS011;12775;46.994;15.498;2023-02-15T09:30:17;49.08;;;26.76;;
1987;SDS011;12775;46.994;15.498;2023-02-15T09:32:46;39.10;;;23.06;;
1987;SDS011;12775;46.994;15.498;2023-02-15T09:35:13;41.22;;;26.02;;
1987;SDS011;12775;46.994;15.498;2023-02-15T09:37:41;45.12;;;26.12;;
1987;SDS011;12775;46.994;15.498;2023-02-15T09:40:11;37.60;;;24.08;;
1987;SDS011;12775;46.994;15.498;2023-02-15T09:42:43;44.08;;;25.52;;
1987;SDS011;12775;46.994;15.498;2023-02-15T09:45:45;45.94;;;27.14;;
1987;SDS011;12775;46.994;15.498;2023-02-15T09:47:57;41.94;;;26.92;;
1987;SDS011;12775;46.994;15.498;2023-02-15T09:50:33;44.54;;;25.90;;
1987;SDS011;12775;46.994;15.498;2023-02-15T09:55:41;44.90;;;28.26;;
1987;SDS011;12775;46.994;15.498;2023-02-15T09:58:11;40.80;;;25.38;;
1987;SDS011;12775;46.994;15.498;2023-02-15T10:01:14;42.40;;;24.52;;
1987;SDS011;12775;46.994;15.498;2023-02-15T10:04:05;41.82;;;26.66;;
1987;SDS011;12775;46.994;15.498;2023-02-15T10:07:00;47.34;;;26.56;;
1987;SDS011;12775;46.994;15.498;2023-02-15T10:09:33;48.08;;;27.22;;
1987;SDS011;12775;46.994;15.498;2023-02-15T10:12:19;46.96;;;26.58;;
1987;SDS011;12775;46.994;15.498;2023-02-15T10:14:47;42.22;;;26.34;;
1987;SDS011;12775;46.994;15.498;2023-02-15T10:17:40;40.76;;;27.04;;
1987;SDS011;12775;46.994;15.498;2023-02-15T10:20:38;44.86;;;26.38;;
1987;SDS011;12775;46.994;15.498;2023-02-15T10:23:00;46.08;;;27.60;;
1987;SDS011;12775;46.994;15.498;2023-02-15T10:25:38;41.96;;;27.86;;
1987;SDS011;12775;46.994;15.498;2023-02-15T10:28:05;37.42;;;24.56;;
1987;SDS011;12775;46.994;15.498;2023-02-15T10:30:36;37.48;;;25.96;;
1987;SDS011;12775;46.994;15.498;2023-02-15T10:33:43;41.82;;;25.38;;
1987;SDS011;12775;46.994;15.498;2023-02-15T10:36:04;45.10;;;26.06;;
1987;SDS011;12775;46.994;15.498;2023-02-15T10:38:32;42.90;;;27.10;;
1987;SDS011;12775;46.994;15.498;2023-02-15T10:41:15;44.80;;;26.88;;
1987;SDS011;12775;46.994;15.498;2023-02-15T10:43:47;45.38;;;28.82;;
1987;SDS011;12775;46.994;15.498;2023-02-15T10:46:33;47.58;;;26.02;;
1987;SDS011;12775;46.994;15.498;2023-02-15T10:49:11;48.08;;;28.22;;
1987;SDS011;12775;46.994;15.498;2023-02-15T10:51:58;43.06;;;28.10;;
1987;SDS011;12775;46.994;15.498;2023-02-15T10:54:29;39.76;;;26.12;;
1987;SDS011;12775;46.994;15.498;2023-02-15T10:57:02;43.06;;;27.32;;
1987;SDS011;12775;46.994;15.498;2023-02-15T10:59:37;47.34;;;28.84;;
1987;SDS011;12775;46.994;15.498;2023-02-15T11:02:17;41.86;;;25.40;;
1987;SDS011;12775;46.994;15.498;2023-02-15T11:04:48;38.54;;;24.08;;
1987;SDS011;12775;46.994;15.498;2023-02-15T11:07:24;40.70;;;25.34;;
1987;SDS011;12775;46.994;15.498;2023-02-15T11:09:54;45.66;;;27.06;;
1987;SDS011;12775;46.994;15.498;2023-02-15T11:12:21;46.86;;;25.86;;
1987;SDS011;12775;46.994;15.498;2023-02-15T11:14:52;41.70;;;26.02;;
1987;SDS011;12775;46.994;15.498;2023-02-15T11:17:30;41.12;;;25.42;;
1987;SDS011;12775;46.994;15.498;2023-02-15T11:20:00;46.54;;;25.70;;
1987;SDS011;12775;46.994;15.498;2023-02-15T11:22:25;45.68;;;28.26;;
1987;SDS011;12775;46.994;15.498;2023-02-15T11:24:53;45.14;;;28.14;;
1987;SDS011;12775;46.994;15.498;2023-02-15T11:27:22;40.40;;;26.52;;
1987;SDS011;12775;46.994;15.498;2023-02-15T11:29:55;38.38;;;24.94;;
1987;SDS011;12775;46.994;15.498;2023-02-15T11:32:21;41.22;;;26.80;;
1987;SDS011;12775;46.994;15.498;2023-02-15T11:37:53;43.36;;;25.94;;
1987;SDS011;12775;46.994;15.498;2023-02-15T11:40:44;45.34;;;27.26;;
1987;SDS011;12775;46.994;15.498;2023-02-15T11:43:34;43.78;;;26.10;;
1987;SDS011;12775;46.994;15.498;2023-02-15T11:46:00;43.18;;;27.08;;
1987;SDS011;12775;46.994;15.498;2023-02-15T11:48:29;45.76;;;28.72;;
1987;SDS011;12775;46.994;15.498;2023-02-15T11:50:55;40.76;;;24.40;;
1987;SDS011;12775;46.994;15.498;2023-02-15T11:53:23;41.68;;;27.16;;
1987;SDS011;12775;46.994;15.498;2023-02-15T11:55:50;40.84;;;25.50;;
1987;SDS011;12775;46.994;15.498;2023-02-15T11:58:23;39.18;;;25.42;;
1987;SDS011;12775;46.994;15.498;2023-02-15T12:01:13;41.36;;;26.56;;
1987;SDS011;12775;46.994;15.498;2023-02-15T12:03:43;37.72;;;24.56;;
1987;SDS011;12775;46.994;15.498;2023-02-15T12:06:13;45.74;;;27.04;;
1987;SDS011;12775;46.994;15.498;2023-02-15T12:08:44;40.40;;;26.66;;
1987;SDS011;12775;46.994;15.498;2023-02-15T12:11:13;45.86;;;27.88;;
1987;SDS011;12775;46.994;15.498;2023-02-15T12:14:12;43.06;;;29.34;;
1987;SDS011;12775;46.994;15.498;2023-02-15T12:16:22;42.06;;;28.28;;
1987;SDS011;12775;46.994;15.498;2023-02-15T12:18:49;42.72;;;27.80;;
1987;SDS011;12775;46.994;15.498;2023-02-15T12:23:52;39.70;;;25.78;;
1987;SDS011;12775;46.994;15.498;2023-02-15T12:26:24;44.74;;;24.98;;
1987;SDS011;12775;46.994;15.498;2023-02-15T12:28:53;43.96;;;27.34;;
1987;SDS011;12775;46.994;15.498;2023-02-15T12:31:23;39.58;;;24.72;;
1987;SDS011;12775;46.994;15.498;2023-02-15T12:33:49;38.32;;;24.90;;
1987;SDS011;12775;46.994;15.498;2023-02-15T12:36:18;46.88;;;27.40;;
1987;SDS011;12775;46.994;15.498;2023-02-15T12:41:30;48.58;;;28.62;;
1987;SDS011;12775;46.994;15.498;2023-02-15T12:44:03;46.74;;;26.94;;
1987;SDS011;12775;46.994;15.498;2023-02-15T12:49:29;45.76;;;26.86;;
1987;SDS011;12775;46.994;15.498;2023-02-15T12:51:56;45.00;;;29.04;;
1987;SDS011;12775;46.994;15.498;2023-02-15T12:54:39;46.08;;;26.76;;
1987;SDS011;12775;46.994;15.498;2023-02-15T12:59:50;50.96;;;30.42;;
1987;SDS011;12775;46.994;15.498;2023-02-15T13:02:21;46.94;;;26.02;;
1987;SDS011;12775;46.994;15.498;2023-02-15T13:04:48;45.92;;;29.08;;
1987;SDS011;12775;46.994;15.498;2023-02-15T13:07:14;42.14;;;28.08;;
1987;SDS011;12775;46.994;15.498;2023-02-15T13:09:42;42.34;;;25.18;;
1987;SDS011;12775;46.994;15.498;2023-02-15T13:12:11;41.40;;;27.10;;
1987;SDS011;12775;46.994;15.498;2023-02-15T13:14:45;42.40;;;25.14;;
1987;SDS011;12775;46.994;15.498;2023-02-15T13:17:12;45.48;;;26.24;;
1987;SDS011;12775;46.994;15.498;2023-02-15T13:19:41;41.56;;;25.32;;
1987;SDS011;12775;46.994;15.498;2023-02-15T13:22:08;43.30;;;25.30;;
1987;SDS011;12775;46.994;15.498;2023-02-15T13:24:34;45.64;;;26.44;;
1987;SDS011;12775;46.994;15.498;2023-02-15T13:27:00;45.76;;;25.94;;
1987;SDS011;12775;46.994;15.498;2023-02-15T13:29:28;45.06;;;27.04;;
1987;SDS011;12775;46.994;15.498;2023-02-15T13:31:54;47.76;;;25.26;;
1987;SDS011;12775;46.994;15.498;2023-02-15T13:34:20;48.54;;;26.04;;
1987;SDS011;12775;46.994;15.498;2023-02-15T13:39:39;43.16;;;25.26;;
1987;SDS011;12775;46.994;15.498;2023-02-15T13:47:44;39.38;;;25.98;;
1987;SDS011;12775;46.994;15.498;2023-02-15T13:50:50;38.44;;;25.16;;
1987;SDS011;12775;46.994;15.498;2023-02-15T13:55:51;40.26;;;24.36;;
1987;SDS011;12775;46.994;15.498;2023-02-15T14:01:08;40.92;;;25.00;;
1987;SDS011;12775;46.994;15.498;2023-02-15T14:03:44;43.48;;;24.74;;
1987;SDS011;12775;46.994;15.498;2023-02-15T14:06:18;38.72;;;24.90;;
1987;SDS011;12775;46.994;15.498;2023-02-15T14:08:45;42.20;;;26.14;;
1987;SDS011;12775;46.994;15.498;2023-02-15T14:11:19;46.98;;;25.32;;
1987;SDS011;12775;46.994;15.498;2023-02-15T14:13:50;41.42;;;25.52;;
1987;SDS011;12775;46.994;15.498;2023-02-15T14:16:17;44.16;;;24.90;;
1987;SDS011;12775;46.994;15.498;2023-02-15T14:18:45;44.40;;;27.24;;
1987;SDS011;12775;46.994;15.498;2023-02-15T14:21:21;38.78;;;23.02;;
1987;SDS011;12775;46.994;15.498;2023-02-15T14:24:08;44.58;;;26.22;;
1987;SDS011;12775;46.994;15.498;2023-02-15T14:27:20;47.60;;;27.30;;
1987;SDS011;12775;46.994;15.498;2023-02-15T14:32:23;42.72;;;25.42;;
1987;SDS011;12775;46.994;15.498;2023-02-15T14:35:12;45.94;;;26.72;;
1987;SDS011;12775;46.994;15.498;2023-02-15T14:37:39;45.02;;;26.50;;
1987;SDS011;12775;46.994;15.498;2023-02-15T14:40:06;47.50;;;26.48;;
1987;SDS011;12775;46.994;15.498;2023-02-15T14:42:42;48.78;;;26.22;;
1987;SDS011;12775;46.994;15.498;2023-02-15T14:45:22;45.48;;;25.62;;
1987;SDS011;12775;46.994;15.498;2023-02-15T14:48:05;41.08;;;23.50;;
1987;SDS011;12775;46.994;15.498;2023-02-15T14:50:39;42.54;;;26.04;;
1987;SDS011;12775;46.994;15.498;2023-02-15T14:55:42;41.78;;;23.56;;
1987;SDS011;12775;46.994;15.498;2023-02-15T14:58:10;39.84;;;25.32;;
1987;SDS011;12775;46.994;15.498;2023-02-15T15:00:38;44.36;;;23.88;;
1987;SDS011;12775;46.994;15.498;2023-02-15T15:03:11;44.24;;;26.58;;
1987;SDS011;12775;46.994;15.498;2023-02-15T15:05:46;43.42;;;25.44;;
1987;SDS011;12775;46.994;15.498;2023-02-15T15:08:06;49.20;;;23.72;;
1987;SDS011;12775;46.994;15.498;2023-02-15T15:10:35;38.08;;;25.50;;
1987;SDS011;12775;46.994;15.498;2023-02-15T15:13:34;43.66;;;23.98;;
1987;SDS011;12775;46.994;15.498;2023-02-15T15:15:47;46.90;;;25.18;;
1987;SDS011;12775;46.994;15.498;2023-02-15T15:18:50;41.60;;;26.74;;
1987;SDS011;12775;46.994;15.498;2023-02-15T15:21:06;41.36;;;25.18;;
1987;SDS011;12775;46.994;15.498;2023-02-15T15:23:40;43.46;;;27.54;;